Time;durP1;ratioP1;P1;durP2;ratioP2;P2;SDS_P1;SDS_P2;PMS_P1;PMS_P2;Temp;Humidity;BMP_temperature;BMP_pressure;BME280_temperature;BME280_humidity;BME280_pressure;Samples;Min_cycle;Max_cycle;Signal;HPM_P1;HPM_P2
2023/08/16 00:00:54;;;;;;;3.10;0.55;;;11.40;99.90;;;;;;5025286;28;20057;-74
2023/08/16 00:03:20;;;;;;;1.58;0.47;;;11.90;99.90;;;;;;5030635;28;20041;-75
2023/08/16 00:05:46;;;;;;;2.00;0.57;;;;;;;;;;5024640;28;20056;-74
2023/08/16 00:08:12;;;;;;;2.50;1.50;;;;;;;;;;5006907;28;20045;-74
2023/08/16 00:10:38;;;;;;;2.92;1.50;;;;;;;;;;5023377;28;20067;-73
2023/08/16 00:13:05;;;;;;;3.03;0.95;;;;;;;;;;5025545;28;20061;-75
2023/08/16 00:15:31;;;;;;;3.70;2.17;;;;;;;;;;5018904;28;20118;-73
2023/08/16 00:17:57;;;;;;;5.82;2.30;;;;;;;;;;5029507;28;20048;-73
2023/08/16 00:20:27;;;;;;;8.10;2.72;;;;;;;;;;5026267;28;20462;-74
2023/08/16 00:22:54;;;;;;;4.05;2.33;;;;;;;;;;5013169;28;20634;-72
2023/08/16 00:25:20;;;;;;;7.60;2.35;;;;;;;;;;5023728;28;20057;-75
2023/08/16 00:27:46;;;;;;;4.70;2.08;;;;;;;;;;5026482;28;20406;-74
2023/08/16 00:30:12;;;;;;;2.22;1.05;;;;;;;;;;5027502;28;20068;-74
2023/08/16 00:32:38;;;;;;;1.50;0.65;;;;;;;;;;5024575;28;20057;-71
2023/08/16 00:35:05;;;;;;;2.85;0.63;;;11.60;99.90;;;;;;5023951;28;20057;-72
2023/08/16 00:37:31;;;;;;;3.00;0.85;;;;;;;;;;5025430;28;20141;-72
2023/08/16 00:39:57;;;;;;;1.95;1.25;;;;;;;;;;5023910;28;20498;-72
2023/08/16 00:42:23;;;;;;;2.75;1.67;;;;;;;;;;5024573;28;20063;-74
2023/08/16 00:44:49;;;;;;;2.83;1.10;;;;;;;;;;5023960;28;20045;-73
2023/08/16 00:47:16;;;;;;;1.70;1.13;;;11.60;99.90;;;;;;5023841;28;20073;-73
2023/08/16 00:49:42;;;;;;;6.00;1.35;;;11.40;99.90;;;;;;5024010;28;20063;-71
2023/08/16 00:52:09;;;;;;;6.03;1.70;;;11.30;99.90;;;;;;5024017;28;20045;-72
2023/08/16 00:54:35;;;;;;;2.63;1.70;;;;;;;;;;5030875;28;20053;-72
2023/08/16 00:57:02;;;;;;;3.67;1.92;;;;;;;;;;5024115;28;20341;-72
2023/08/16 00:59:28;;;;;;;4.72;2.30;;;;;;;;;;5023715;28;20060;-75
2023/08/16 01:01:54;;;;;;;3.88;2.08;;;;;;;;;;5023284;28;20049;-75
2023/08/16 01:04:21;;;;;;;3.25;1.88;;;;;;;;;;5006964;28;20044;-72
2023/08/16 01:06:47;;;;;;;3.10;2.08;;;;;;;;;;5027579;28;20049;-73
2023/08/16 01:09:13;;;;;;;7.95;2.45;;;;;;;;;;5023844;28;20064;-72
2023/08/16 01:11:45;;;;;;;4.20;2.92;;;11.10;99.90;;;;;;5005995;28;20592;-74
2023/08/16 01:14:19;;;;;;;3.22;2.00;;;11.60;99.90;;;;;;5006762;28;20049;-72
2023/08/16 01:16:46;;;;;;;4.93;2.25;;;11.10;99.90;;;;;;5017600;28;20485;-74
2023/08/16 01:19:31;;;;;;;6.38;3.35;;;11.00;99.90;;;;;;5023831;28;20055;-72
2023/08/16 01:22:22;;;;;;;3.85;2.50;;;11.00;99.90;;;;;;5026342;28;20057;-74
2023/08/16 01:24:59;;;;;;;2.40;1.02;;;11.00;99.90;;;;;;5023562;28;20095;-74
2023/08/16 01:27:26;;;;;;;1.25;0.70;;;11.00;99.90;;;;;;5028375;28;20473;-73
2023/08/16 01:29:53;;;;;;;1.45;0.70;;;11.00;99.90;;;;;;5030870;28;20478;-73
2023/08/16 01:32:22;;;;;;;2.10;0.90;;;11.00;99.90;;;;;;5007575;28;20053;-73
2023/08/16 01:34:48;;;;;;;3.35;1.38;;;;;;;;;;5023084;28;20083;-73
2023/08/16 01:37:14;;;;;;;2.65;1.33;;;;;;;;;;5022547;28;20136;-73
2023/08/16 01:39:40;;;;;;;1.75;1.15;;;;;;;;;;5023371;28;20041;-74
2023/08/16 01:42:08;;;;;;;3.28;1.85;;;11.10;99.90;;;;;;5029536;28;20044;-73
2023/08/16 01:44:34;;;;;;;2.90;1.98;;;;;;;;;;5023090;28;20094;-73
2023/08/16 01:47:01;;;;;;;3.58;1.92;;;11.00;99.90;;;;;;5026507;28;20131;-74
2023/08/16 01:49:28;;;;;;;9.02;4.72;;;11.00;99.90;;;;;;5027803;28;20483;-74
2023/08/16 01:51:54;;;;;;;7.03;3.90;;;;;;;;;;5040152;28;20079;-73
2023/08/16 01:54:20;;;;;;;5.88;4.65;;;;;;;;;;5022646;28;20460;-73
2023/08/16 01:56:46;;;;;;;9.10;4.63;;;;;;;;;;5006473;28;20049;-73
2023/08/16 01:59:12;;;;;;;6.95;5.15;;;;;;;;;;5029280;28;20819;-73
2023/08/16 02:01:38;;;;;;;7.82;4.15;;;;;;;;;;5023053;28;20052;-73
2023/08/16 02:04:05;;;;;;;5.55;3.28;;;;;;;;;;5027018;28;20084;-73
2023/08/16 02:06:31;;;;;;;4.32;3.63;;;;;;;;;;5013213;28;20048;-73
2023/08/16 02:08:57;;;;;;;6.18;4.50;;;;;;;;;;5029520;28;20425;-73
2023/08/16 02:11:23;;;;;;;9.25;4.10;;;;;;;;;;5028602;28;20746;-74
2023/08/16 02:13:49;;;;;;;7.00;4.57;;;;;;;;;;5023136;28;20642;-73
2023/08/16 02:16:15;;;;;;;13.40;4.50;;;;;;;;;;5029349;28;20087;-73
2023/08/16 02:18:41;;;;;;;6.22;3.97;;;;;;;;;;5028921;28;20052;-74
2023/08/16 02:21:07;;;;;;;6.38;2.50;;;;;;;;;;5029213;28;20391;-72
2023/08/16 02:23:33;;;;;;;5.75;2.67;;;;;;;;;;5031889;28;20048;-73
2023/08/16 02:25:59;;;;;;;7.70;3.20;;;;;;;;;;5029201;28;20353;-73
2023/08/16 02:28:26;;;;;;;2.92;2.10;;;;;;;;;;5028457;28;20058;-73
2023/08/16 02:30:52;;;;;;;3.42;1.60;;;;;;;;;;5034221;28;20044;-73
2023/08/16 02:33:18;;;;;;;2.90;1.50;;;;;;;;;;5029668;28;20182;-73
2023/08/16 02:35:44;;;;;;;2.65;1.10;;;;;;;;;;5028295;28;20056;-72
2023/08/16 02:38:10;;;;;;;2.13;1.13;;;;;;;;;;5031149;28;20049;-73
2023/08/16 02:40:36;;;;;;;3.25;1.42;;;10.70;99.90;;;;;;5022982;28;20048;-72
2023/08/16 02:43:02;;;;;;;2.10;1.08;;;10.70;99.90;;;;;;5031388;28;20061;-73
2023/08/16 02:45:28;;;;;;;2.35;0.90;;;;;;;;;;5028914;28;20080;-72
2023/08/16 02:47:54;;;;;;;1.75;0.88;;;11.10;99.90;;;;;;5029274;28;20055;-72
2023/08/16 02:50:20;;;;;;;3.95;1.50;;;;;;;;;;5038464;28;20037;-72
2023/08/16 02:52:46;;;;;;;3.80;1.58;;;10.50;99.90;;;;;;5029036;28;20579;-72
2023/08/16 02:55:12;;;;;;;3.03;1.38;;;10.40;99.90;;;;;;5028972;28;20053;-73
2023/08/16 02:57:38;;;;;;;3.72;1.95;;;;;;;;;;5029418;28;20053;-73
2023/08/16 03:00:06;;;;;;;6.18;1.58;;;;;;;;;;5028348;28;20106;-73
2023/08/16 03:02:34;;;;;;;4.00;1.98;;;;;;;;;;5024005;28;20080;-73
2023/08/16 03:05:00;;;;;;;6.32;3.72;;;;;;;;;;5029887;28;20397;-73
2023/08/16 03:07:26;;;;;;;10.55;4.50;;;;;;;;;;5017304;28;20094;-74
2023/08/16 03:09:52;;;;;;;9.13;6.18;;;10.40;99.90;;;;;;5029212;28;20059;-74
2023/08/16 03:12:18;;;;;;;8.38;5.20;;;;;;;;;;5029180;28;20048;-73
2023/08/16 03:14:44;;;;;;;7.50;4.18;;;;;;;;;;5025661;28;20490;-74
2023/08/16 03:17:10;;;;;;;7.10;2.85;;;;;;;;;;5029801;28;20140;-73
2023/08/16 03:19:36;;;;;;;3.55;2.33;;;10.50;99.90;;;;;;5029803;28;20055;-75
2023/08/16 03:22:02;;;;;;;3.38;2.30;;;;;;;;;;5030081;28;20057;-75
2023/08/16 03:24:28;;;;;;;4.63;3.25;;;;;;;;;;5030538;28;20083;-77
2023/08/16 03:26:54;;;;;;;5.03;3.88;;;;;;;;;;5027263;28;20402;-78
2023/08/16 03:29:21;;;;;;;7.32;4.25;;;;;;;;;;5025207;28;20136;-80
2023/08/16 03:31:47;;;;;;;14.13;6.50;;;;;;;;;;5008373;28;20057;-83
2023/08/16 03:34:13;;;;;;;8.43;5.47;;;;;;;;;;5026541;28;20064;-79
2023/08/16 03:36:40;;;;;;;6.97;5.15;;;;;;;;;;5007859;28;20896;-81
2023/08/16 03:39:06;;;;;;;5.78;4.40;;;;;;;;;;5024940;28;20049;-83
2023/08/16 03:41:37;;;;;;;6.78;4.63;;;;;;;;;;5020881;28;20123;-81
2023/08/16 03:44:03;;;;;;;5.72;4.05;;;;;;;;;;5025207;28;20057;-77
2023/08/16 03:46:29;;;;;;;6.07;4.13;;;;;;;;;;5026112;28;20839;-84
2023/08/16 03:48:56;;;;;;;8.68;4.50;;;;;;;;;;5016967;28;20052;-86
2023/08/16 03:51:22;;;;;;;8.45;5.30;;;;;;;;;;5030216;28;20582;-78
2023/08/16 03:53:48;;;;;;;6.50;5.25;;;;;;;;;;5011097;28;20517;-81
2023/08/16 03:56:14;;;;;;;6.43;5.30;;;;;;;;;;5008357;28;20045;-81
2023/08/16 03:58:40;;;;;;;9.20;4.60;;;;;;;;;;5024445;28;20049;-82
2023/08/16 04:01:06;;;;;;;4.90;4.13;;;;;;;;;;5025152;28;20060;-81
2023/08/16 04:03:32;;;;;;;9.57;5.05;;;;;;;;;;5026828;28;20044;-79
2023/08/16 04:05:59;;;;;;;6.20;3.92;;;;;;;;;;5011263;28;20585;-79
2023/08/16 04:08:25;;;;;;;8.48;4.88;;;;;;;;;;5027856;28;20048;-78
2023/08/16 04:10:51;;;;;;;10.55;5.18;;;;;;;;;;5014985;28;20052;-79
2023/08/16 04:13:17;;;;;;;8.70;5.25;;;;;;;;;;5011425;28;20037;-79
2023/08/16 04:15:43;;;;;;;10.52;5.63;;;;;;;;;;5024699;28;20136;-76
2023/08/16 04:18:09;;;;;;;6.75;5.07;;;;;;;;;;5006470;28;20040;-78
2023/08/16 04:20:35;;;;;;;9.02;5.55;;;;;;;;;;5023298;28;20044;-78
2023/08/16 04:23:02;;;;;;;12.90;6.00;;;;;;;;;;5030491;28;20053;-75
2023/08/16 04:25:28;;;;;;;11.93;5.25;;;;;;;;;;5029933;28;20049;-76
2023/08/16 04:27:54;;;;;;;11.18;6.40;;;;;;;;;;5008521;23;20065;-73
2023/08/16 04:30:20;;;;;;;7.20;5.72;;;;;;;;;;4994585;28;20131;-76
2023/08/16 04:32:46;;;;;;;9.82;6.00;;;;;;;;;;4989225;28;20144;-80
2023/08/16 04:35:12;;;;;;;6.47;4.95;;;;;;;;;;5005029;28;20820;-79
2023/08/16 04:37:38;;;;;;;5.65;3.60;;;;;;;;;;5005913;28;20045;-76
2023/08/16 04:40:05;;;;;;;5.88;4.05;;;10.40;99.90;;;;;;4990829;28;20053;-74
2023/08/16 04:42:34;;;;;;;11.40;6.38;;;;;;;;;;5006779;28;20135;-76
2023/08/16 04:45:00;;;;;;;14.13;5.30;;;;;;;;;;5021071;28;20045;-74
2023/08/16 04:47:26;;;;;;;12.63;4.80;;;;;;;;;;4990450;28;20053;-74
2023/08/16 04:49:52;;;;;;;20.55;4.60;;;10.70;99.90;;;;;;4991191;28;20103;-75
2023/08/16 04:52:18;;;;;;;7.15;3.42;;;10.60;99.90;;;;;;4990779;28;20045;-75
2023/08/16 04:54:44;;;;;;;5.30;3.10;;;;;;;;;;5007200;28;20123;-75
2023/08/16 04:57:10;;;;;;;4.80;2.80;;;;;;;;;;5016276;23;20053;-77
2023/08/16 04:59:36;;;;;;;6.65;3.30;;;10.70;99.90;;;;;;5007572;28;20081;-78
2023/08/16 05:02:03;;;;;;;14.85;3.78;;;;;;;;;;5040404;28;20583;-80
2023/08/16 05:04:29;;;;;;;10.88;3.33;;;;;;;;;;5032798;28;20146;-80
2023/08/16 05:06:55;;;;;;;15.05;4.60;;;;;;;;;;5040599;28;20053;-73
2023/08/16 05:09:22;;;;;;;9.00;4.32;;;;;;;;;;5040783;28;20044;-77
2023/08/16 05:11:48;;;;;;;25.80;5.50;;;;;;;;;;5056558;28;20149;-80
2023/08/16 05:14:14;;;;;;;18.08;5.97;;;;;;;;;;5040485;28;20073;-75
2023/08/16 05:16:40;;;;;;;9.70;5.80;;;;;;;;;;5035115;28;20140;-74
2023/08/16 05:19:07;;;;;;;14.93;5.50;;;;;;;;;;5039330;28;20234;-73
2023/08/16 05:21:33;;;;;;;9.40;4.43;;;;;;;;;;5023531;28;20049;-79
2023/08/16 05:23:59;;;;;;;5.10;4.60;;;;;;;;;;5039474;28;20071;-76
2023/08/16 05:26:25;;;;;;;5.88;4.70;;;;;;;;;;5055874;28;20057;-77
2023/08/16 05:28:51;;;;;;;7.07;5.22;;;;;;;;;;5040096;28;20094;-77
2023/08/16 05:31:17;;;;;;;6.40;4.60;;;;;;;;;;5039486;28;20713;-78
2023/08/16 05:33:43;;;;;;;5.75;4.88;;;12.50;99.90;;;;;;5039734;28;20056;-79
2023/08/16 05:36:09;;;;;;;5.90;4.07;;;;;;;;;;5038443;28;20044;-80
2023/08/16 05:38:35;;;;;;;9.30;4.65;;;;;;;;;;5020085;23;20065;-80
2023/08/16 05:41:05;;;;;;;11.55;4.70;;;13.30;99.90;;;;;;4976231;28;20157;-80
2023/08/16 05:43:31;;;;;;;5.50;4.35;;;14.70;99.90;;;;;;4962528;28;20038;-80
2023/08/16 05:45:58;;;;;;;4.60;3.40;;;;;;;;;;4967091;28;20054;-80
2023/08/16 05:48:23;;;;;;;5.28;3.63;;;15.80;99.90;;;;;;4983842;28;20092;-79
2023/08/16 05:50:50;;;;;;;4.70;3.58;;;;;;;;;;4993527;23;20053;-80
2023/08/16 05:53:16;;;;;;;5.90;3.13;;;;;;;;;;4983299;28;20050;-79
2023/08/16 05:55:42;;;;;;;4.43;2.75;;;;;;;;;;5004031;28;20670;-78
2023/08/16 05:58:08;;;;;;;4.55;3.08;;;18.70;99.90;;;;;;5003511;28;20046;-78
2023/08/16 06:00:34;;;;;;;6.72;3.38;;;;;;;;;;4999284;28;20103;-78
2023/08/16 06:03:00;;;;;;;4.80;2.88;;;;;;;;;;5000585;28;20049;-77
2023/08/16 06:05:26;;;;;;;3.20;2.70;;;20.90;99.90;;;;;;5002457;28;20056;-78
2023/08/16 06:07:52;;;;;;;5.82;3.33;;;21.30;99.90;;;;;;4986766;28;20053;-78
2023/08/16 06:10:18;;;;;;;7.90;2.97;;;21.40;99.90;;;;;;4987018;28;20057;-78
2023/08/16 06:12:43;;;;;;;5.43;4.10;;;22.30;99.90;;;;;;4986808;28;20056;-78
2023/08/16 06:15:12;;;;;;;4.10;3.25;;;23.20;99.90;;;;;;5002980;28;20057;-77
2023/08/16 06:17:39;;;;;;;5.88;3.50;;;23.10;99.90;;;;;;5003674;28;20050;-75
2023/08/16 06:20:07;;;;;;;9.10;3.75;;;23.90;99.90;;;;;;4986490;28;20057;-78
2023/08/16 06:22:37;;;;;;;6.97;3.40;;;24.20;99.90;;;;;;4986487;28;20045;-77
2023/08/16 06:25:12;;;;;;;5.90;3.42;;;25.00;99.90;;;;;;5002903;28;20056;-77
2023/08/16 06:27:37;;;;;;;5.80;2.67;;;25.50;98.80;;;;;;5002383;28;20045;-76
2023/08/16 06:30:04;;;;;;;6.00;3.08;;;;;;;;;;5001199;28;21621;-76
2023/08/16 06:32:29;;;;;;;5.88;2.97;;;25.10;98.20;;;;;;5002216;28;20053;-76
2023/08/16 06:34:55;;;;;;;3.90;2.92;;;25.10;97.70;;;;;;5000526;28;20055;-77
2023/08/16 06:37:21;;;;;;;9.57;3.03;;;25.10;99.90;;;;;;5000857;28;20049;-76
2023/08/16 06:39:47;;;;;;;4.53;3.17;;;25.20;97.40;;;;;;5000874;28;20602;-76
2023/08/16 06:42:13;;;;;;;5.10;3.42;;;25.00;97.10;;;;;;5000793;28;20084;-76
2023/08/16 06:44:39;;;;;;;7.07;3.40;;;24.90;96.90;;;;;;5004868;28;20042;-77
2023/08/16 06:47:05;;;;;;;5.72;3.92;;;24.70;96.40;;;;;;4984772;28;20064;-76
2023/08/16 06:49:31;;;;;;;6.63;3.80;;;24.40;96.20;;;;;;5000941;28;20037;-76
2023/08/16 06:51:57;;;;;;;6.85;3.70;;;24.50;96.10;;;;;;4985193;28;20065;-75
2023/08/16 06:54:23;;;;;;;4.35;3.72;;;;;;;;;;5004500;28;20095;-76
2023/08/16 06:56:49;;;;;;;7.57;3.85;;;24.30;96.00;;;;;;5005118;28;20049;-76
2023/08/16 06:59:15;;;;;;;6.93;3.67;;;24.50;96.70;;;;;;4990190;28;20084;-76
2023/08/16 07:01:42;;;;;;;7.15;3.25;;;;;;;;;;4983522;28;20056;-78
2023/08/16 07:04:07;;;;;;;7.20;3.65;;;24.10;96.30;;;;;;5005804;28;20330;-75
2023/08/16 07:06:33;;;;;;;6.50;3.40;;;23.90;96.80;;;;;;5005683;28;20492;-75
2023/08/16 07:08:59;;;;;;;8.00;3.60;;;23.80;97.10;;;;;;5006231;28;20120;-75
2023/08/16 07:11:25;;;;;;;5.15;4.10;;;23.90;97.00;;;;;;5005386;28;20042;-76
2023/08/16 07:13:51;;;;;;;5.20;4.00;;;24.20;96.60;;;;;;5005787;28;20113;-75
2023/08/16 07:16:18;;;;;;;8.00;3.65;;;24.90;96.60;;;;;;5005913;28;20041;-75
2023/08/16 07:18:44;;;;;;;7.93;3.60;;;26.60;97.30;;;;;;4989721;28;20053;-78
2023/08/16 07:21:10;;;;;;;6.47;3.78;;;26.70;94.60;;;;;;5006634;28;20052;-76
2023/08/16 07:23:36;;;;;;;6.20;3.00;;;27.20;93.90;;;;;;4989861;28;20049;-75
2023/08/16 07:26:03;;;;;;;8.60;3.65;;;27.80;93.60;;;;;;5005352;28;20045;-74
2023/08/16 07:28:29;;;;;;;6.15;3.00;;;28.40;92.80;;;;;;5005144;28;20048;-73
2023/08/16 07:30:55;;;;;;;5.07;2.70;;;28.50;92.20;;;;;;5010316;23;20061;-70
2023/08/16 07:33:21;;;;;;;4.13;2.70;;;28.40;90.80;;;;;;5006301;28;20053;-73
2023/08/16 07:35:48;;;;;;;6.18;3.42;;;27.50;91.80;;;;;;4988420;28;20137;-73
2023/08/16 07:38:14;;;;;;;5.07;3.05;;;27.30;90.60;;;;;;5005712;28;20100;-74
2023/08/16 07:40:40;;;;;;;6.63;2.85;;;27.20;91.10;;;;;;5005574;28;20057;-73
2023/08/16 07:43:05;;;;;;;6.78;2.67;;;27.10;91.10;;;;;;5005535;28;20048;-73
2023/08/16 07:45:31;;;;;;;7.30;3.08;;;27.60;92.20;;;;;;5005763;28;20075;-71
2023/08/16 07:47:57;;;;;;;9.80;2.83;;;27.50;90.50;;;;;;5005171;28;20049;-71
2023/08/16 07:50:23;;;;;;;7.10;3.05;;;;;;;;;;4989243;28;20095;-70
2023/08/16 07:52:49;;;;;;;7.60;4.03;;;;;;;;;;4999021;28;20057;-73
2023/08/16 07:55:16;;;;;;;5.32;2.88;;;27.50;87.90;;;;;;5005512;28;20579;-71
2023/08/16 07:57:42;;;;;;;4.38;2.75;;;;;;;;;;5005271;28;20075;-72
2023/08/16 08:00:12;;;;;;;6.00;2.88;;;28.70;90.80;;;;;;5000256;28;20128;-71
2023/08/16 08:02:40;;;;;;;4.18;2.30;;;28.60;88.00;;;;;;5004771;28;20079;-73
2023/08/16 08:05:06;;;;;;;6.07;2.85;;;29.40;86.60;;;;;;4984985;28;20041;-73
2023/08/16 08:07:32;;;;;;;5.10;2.63;;;30.30;84.10;;;;;;4984543;28;20414;-72
2023/08/16 08:09:58;;;;;;;7.93;2.58;;;30.90;81.50;;;;;;4989352;28;20053;-72
2023/08/16 08:12:24;;;;;;;6.25;1.90;;;31.90;80.50;;;;;;4983745;28;20531;-68
2023/08/16 08:14:50;;;;;;;5.03;2.08;;;32.50;77.50;;;;;;4985889;28;20054;-71
2023/08/16 08:17:16;;;;;;;5.95;2.50;;;;;;;;;;5004656;28;20107;-73
2023/08/16 08:19:42;;;;;;;4.65;2.50;;;33.30;70.70;;;;;;5000402;28;20046;-78
2023/08/16 08:22:09;;;;;;;6.05;1.52;;;33.80;69.20;;;;;;5005123;28;20060;-69
2023/08/16 08:24:35;;;;;;;6.32;1.83;;;34.20;67.70;;;;;;5004663;28;20131;-70
2023/08/16 08:27:01;;;;;;;6.38;1.77;;;34.30;66.10;;;;;;5004510;28;20156;-74
2023/08/16 08:29:26;;;;;;;6.47;1.75;;;34.30;65.70;;;;;;4988673;28;20962;-71
2023/08/16 08:31:53;;;;;;;3.45;1.23;;;34.00;65.10;;;;;;4992321;28;20135;-74
2023/08/16 08:34:19;;;;;;;5.55;1.23;;;33.20;64.30;;;;;;5014874;28;20196;-73
2023/08/16 08:36:45;;;;;;;5.68;1.00;;;32.40;64.80;;;;;;5002924;28;20051;-70
2023/08/16 08:39:11;;;;;;;5.07;2.00;;;31.50;64.50;;;;;;5018824;28;20041;-70
2023/08/16 08:41:38;;;;;;;6.03;1.13;;;30.80;65.90;;;;;;5006182;28;20049;-77
2023/08/16 08:44:05;;;;;;;4.93;1.73;;;30.60;67.10;;;;;;5006981;28;20049;-71
2023/08/16 08:46:32;;;;;;;1.75;0.77;;;30.20;70.90;;;;;;5024315;28;20048;-71
2023/08/16 08:49:00;;;;;;;7.35;2.38;;;30.20;67.50;;;;;;5024236;28;20040;-73
2023/08/16 08:51:30;;;;;;;4.97;0.90;;;29.70;66.80;;;;;;5022453;28;20041;-73
2023/08/16 08:53:56;;;;;;;1.85;0.80;;;29.60;68.00;;;;;;5023282;28;20041;-74
2023/08/16 08:56:23;;;;;;;1.88;0.70;;;29.90;68.60;;;;;;5006774;28;20374;-71
2023/08/16 08:58:50;;;;;;;4.97;0.90;;;30.10;69.10;;;;;;5022421;28;20132;-73
2023/08/16 09:01:17;;;;;;;2.20;1.00;;;30.00;67.90;;;;;;5000648;28;20044;-74
2023/08/16 09:03:45;;;;;;;3.22;1.10;;;30.40;69.20;;;;;;5020870;28;20040;-72
2023/08/16 09:06:12;;;;;;;3.97;1.05;;;30.00;67.50;;;;;;5017285;28;20118;-73
2023/08/16 09:08:40;;;;;;;6.20;1.58;;;29.70;67.10;;;;;;5004767;28;20107;-78
2023/08/16 09:11:07;;;;;;;2.88;1.13;;;30.00;71.40;;;;;;5015662;28;20563;-76
2023/08/16 09:13:33;;;;;;;5.13;1.15;;;29.10;71.10;;;;;;5006531;28;20717;-72
2023/08/16 09:16:02;;;;;;;3.33;1.00;;;29.20;68.60;;;;;;5000778;28;20044;-74
2023/08/16 09:18:28;;;;;;;4.93;0.85;;;29.30;68.50;;;;;;5021882;28;20045;-73
2023/08/16 09:20:53;;;;;;;3.45;0.88;;;29.30;69.80;;;;;;5021795;28;20052;-72
2023/08/16 09:23:21;;;;;;;2.22;0.80;;;29.50;69.60;;;;;;5022041;28;20190;-73
2023/08/16 09:25:49;;;;;;;3.65;1.02;;;29.70;69.10;;;;;;5022571;28;20053;-75
2023/08/16 09:28:15;;;;;;;2.92;0.70;;;29.80;69.00;;;;;;5007455;28;20056;-73
2023/08/16 09:30:41;;;;;;;3.45;0.60;;;29.90;69.50;;;;;;5007403;28;20059;-75
2023/08/16 09:33:10;;;;;;;3.83;1.08;;;30.10;70.00;;;;;;5006498;28;20144;-74
2023/08/16 09:35:38;;;;;;;3.90;1.35;;;30.30;71.20;;;;;;5007039;28;20425;-77
2023/08/16 09:38:04;;;;;;;6.43;1.10;;;30.30;68.90;;;;;;5005880;28;20082;-74
2023/08/16 09:40:30;;;;;;;3.67;1.00;;;30.30;72.10;;;;;;5023153;28;20061;-75
2023/08/16 09:43:03;;;;;;;3.10;1.00;;;30.10;70.90;;;;;;5023182;28;20391;-73
2023/08/16 09:45:33;;;;;;;4.55;1.38;;;30.80;68.20;;;;;;5006490;28;20047;-72
2023/08/16 09:48:00;;;;;;;2.55;1.05;;;30.80;65.60;;;;;;5016766;28;20132;-78
2023/08/16 09:50:35;;;;;;;4.65;1.05;;;30.80;66.10;;;;;;5018777;28;20049;-72
2023/08/16 09:53:04;;;;;;;2.35;0.90;;;30.70;66.20;;;;;;5019803;28;20123;-76
2023/08/16 09:55:32;;;;;;;6.25;1.25;;;30.70;66.80;;;;;;5017237;28;20060;-73
2023/08/16 09:57:59;;;;;;;6.78;1.15;;;31.00;66.10;;;;;;5004968;28;20565;-72
2023/08/16 10:00:27;;;;;;;3.03;0.95;;;31.60;67.80;;;;;;5016226;28;20083;-73
2023/08/16 10:02:54;;;;;;;5.72;1.10;;;31.50;65.10;;;;;;5004711;28;20045;-73
2023/08/16 10:05:20;;;;;;;2.35;0.88;;;31.60;64.70;;;;;;5003554;28;20414;-76
2023/08/16 10:07:49;;;;;;;5.68;0.90;;;31.80;66.30;;;;;;5022695;28;20084;-73
2023/08/16 10:10:16;;;;;;;2.70;0.80;;;32.10;66.40;;;;;;5022619;28;20041;-74
2023/08/16 10:12:42;;;;;;;2.63;0.60;;;32.30;65.70;;;;;;5020758;28;20510;-75
2023/08/16 10:15:10;;;;;;;2.42;0.63;;;32.60;65.30;;;;;;5018689;28;20083;-73
2023/08/16 10:17:40;;;;;;;3.47;0.57;;;32.70;63.60;;;;;;5019353;28;20477;-75
2023/08/16 10:20:30;;;;;;;2.53;0.50;;;32.60;64.30;;;;;;5022070;28;20498;-77
2023/08/16 10:22:59;;;;;;;3.35;0.75;;;32.60;64.30;;;;;;5004366;28;20718;-77
2023/08/16 10:25:30;;;;;;;3.42;1.13;;;32.50;63.90;;;;;;5022334;28;20099;-76
2023/08/16 10:28:00;;;;;;;1.58;0.50;;;32.50;62.60;;;;;;5026945;28;20795;-73
2023/08/16 10:30:27;;;;;;;4.28;0.73;;;32.30;62.40;;;;;;5024893;28;20041;-72
2023/08/16 10:33:05;;;;;;;4.18;1.10;;;32.30;62.50;;;;;;5008612;28;20683;-73
2023/08/16 10:35:34;;;;;;;2.00;0.88;;;31.90;60.90;;;;;;5009303;28;20044;-75
2023/08/16 10:38:00;;;;;;;3.40;0.70;;;32.00;61.70;;;;;;5006595;28;20057;-72
2023/08/16 10:40:26;;;;;;;2.42;0.40;;;;;;;;;;5019732;28;20510;-76
2023/08/16 10:42:54;;;;;;;1.58;0.30;;;32.00;60.60;;;;;;5004264;28;20572;-76
2023/08/16 10:45:34;;;;;;;1.48;0.30;;;31.40;62.70;;;;;;5005842;28;20498;-71
2023/08/16 10:48:20;;;;;;;1.45;0.28;;;31.10;60.10;;;;;;5000913;28;20272;-74
2023/08/16 10:50:59;;;;;;;2.22;0.30;;;30.60;60.60;;;;;;5022139;28;20058;-73
2023/08/16 10:53:25;;;;;;;1.98;0.30;;;30.10;60.70;;;;;;5024841;28;20055;-72
2023/08/16 10:55:56;;;;;;;1.58;0.40;;;28.90;65.30;;;;;;5000328;28;20053;-73
2023/08/16 10:58:23;;;;;;;5.10;0.40;;;28.80;63.30;;;;;;5004878;28;20057;-75
2023/08/16 11:01:02;;;;;;;2.80;0.60;;;28.60;64.20;;;;;;4997647;28;20053;-74
2023/08/16 11:03:31;;;;;;;3.28;0.30;;;28.30;68.30;;;;;;5006897;28;20060;-73
2023/08/16 11:06:06;;;;;;;2.30;0.50;;;28.10;64.80;;;;;;5019033;28;20056;-74
2023/08/16 11:08:32;;;;;;;4.18;0.40;;;;;;;;;;5005011;28;20049;-74
2023/08/16 11:11:01;;;;;;;2.15;0.50;;;27.50;66.00;;;;;;5021677;28;20068;-79
2023/08/16 11:13:28;;;;;;;3.13;0.30;;;27.50;67.90;;;;;;5002501;28;20053;-75
2023/08/16 11:15:55;;;;;;;3.15;0.40;;;27.40;68.10;;;;;;5017737;28;20081;-73
2023/08/16 11:18:30;;;;;;;1.48;0.20;;;26.60;66.90;;;;;;5004400;28;20449;-75
2023/08/16 11:20:59;;;;;;;1.88;0.20;;;26.40;67.10;;;;;;5005536;28;20056;-74
2023/08/16 11:23:45;;;;;;;2.75;0.30;;;26.30;68.00;;;;;;5000099;28;20458;-74
2023/08/16 11:26:11;;;;;;;6.35;1.20;;;26.40;72.50;;;;;;5013888;28;20399;-77
2023/08/16 11:28:39;;;;;;;3.28;0.20;;;25.80;74.00;;;;;;5024052;28;20045;-77
2023/08/16 11:31:07;;;;;;;1.25;0.20;;;26.10;69.20;;;;;;5019237;28;20046;-76
2023/08/16 11:33:39;;;;;;;2.80;0.40;;;26.10;69.80;;;;;;5005436;28;20119;-75
2023/08/16 11:36:08;;;;;;;1.55;0.22;;;26.10;69.80;;;;;;5001843;28;20116;-72
2023/08/16 11:38:34;;;;;;;3.38;0.70;;;;;;;;;;5023444;28;20132;-73
2023/08/16 11:41:01;;;;;;;1.73;0.38;;;26.40;74.60;;;;;;5021636;28;20060;-71
2023/08/16 11:43:32;;;;;;;3.85;0.30;;;25.90;69.70;;;;;;5015863;28;20063;-74
2023/08/16 11:45:59;;;;;;;2.53;0.20;;;25.40;68.40;;;;;;5021805;28;20499;-75
2023/08/16 11:48:25;;;;;;;2.42;0.30;;;25.10;68.60;;;;;;5015413;28;20129;-71
2023/08/16 11:50:55;;;;;;;1.63;0.32;;;25.10;70.70;;;;;;5004787;28;20057;-71
2023/08/16 11:53:22;;;;;;;2.83;0.40;;;25.00;75.60;;;;;;5017565;28;20095;-74
2023/08/16 11:56:02;;;;;;;2.88;0.20;;;24.90;70.50;;;;;;5018301;28;20186;-72
2023/08/16 11:58:28;;;;;;;1.20;0.30;;;24.90;71.10;;;;;;4998616;28;20112;-73
2023/08/16 12:01:05;;;;;;;2.05;0.57;;;24.70;75.40;;;;;;5014016;28;20057;-73
2023/08/16 12:03:34;;;;;;;2.33;0.22;;;25.20;73.60;;;;;;5022858;28;20127;-73
2023/08/16 12:06:10;;;;;;;2.35;0.40;;;25.20;73.80;;;;;;5004177;28;20057;-75
2023/08/16 12:08:57;;;;;;;2.03;0.30;;;24.80;73.60;;;;;;5019757;28;20816;-71
2023/08/16 12:11:33;;;;;;;1.85;0.30;;;24.60;76.90;;;;;;5003495;28;20057;-81
2023/08/16 12:14:00;;;;;;;3.13;0.30;;;24.50;73.20;;;;;;4998304;28;20046;-74
2023/08/16 12:16:26;;;;;;;2.80;0.30;;;24.50;78.90;;;;;;5020576;28;20114;-74
2023/08/16 12:18:52;;;;;;;0.98;0.30;;;24.60;78.00;;;;;;5017331;28;20056;-75
2023/08/16 12:21:18;;;;;;;3.03;0.30;;;24.20;77.40;;;;;;5017681;28;20054;-75
2023/08/16 12:23:46;;;;;;;3.63;0.40;;;;;;;;;;5016231;28;20494;-74
2023/08/16 12:26:15;;;;;;;2.15;0.13;;;24.10;79.30;;;;;;5016644;28;20057;-74
2023/08/16 12:28:42;;;;;;;3.65;0.20;;;24.00;79.30;;;;;;5019112;28;20048;-73
2023/08/16 12:31:08;;;;;;;1.50;0.32;;;24.20;74.10;;;;;;5002634;28;20132;-78
2023/08/16 12:33:34;;;;;;;2.45;0.20;;;;;;;;;;4997845;28;20526;-75
2023/08/16 12:36:00;;;;;;;1.30;0.30;;;24.30;79.50;;;;;;5003263;28;20433;-80
2023/08/16 12:38:27;;;;;;;2.58;0.20;;;24.30;79.60;;;;;;5005361;28;20048;-77
2023/08/16 12:40:52;;;;;;;1.65;0.20;;;24.50;78.30;;;;;;5020439;28;20068;-79
2023/08/16 12:43:21;;;;;;;4.95;0.47;;;23.80;77.80;;;;;;5020902;28;20049;-73
2023/08/16 12:45:47;;;;;;;1.02;0.10;;;23.90;77.20;;;;;;5007604;28;20057;-73
2023/08/16 12:48:14;;;;;;;1.33;0.10;;;24.00;74.00;;;;;;5020883;28;20449;-74
2023/08/16 12:50:40;;;;;;;3.08;0.20;;;;;;;;;;5005978;28;20064;-79
2023/08/16 12:53:07;;;;;;;3.95;0.50;;;23.70;73.60;;;;;;4997792;28;20878;-71
2023/08/16 12:55:33;;;;;;;1.70;0.20;;;23.60;78.60;;;;;;5005914;28;20049;-73
2023/08/16 12:57:59;;;;;;;2.53;0.30;;;23.70;79.70;;;;;;5018388;28;20064;-80
2023/08/16 13:00:27;;;;;;;6.32;0.63;;;23.70;75.70;;;;;;5002251;28;20569;-71
2023/08/16 13:02:55;;;;;;;2.20;0.20;;;23.70;75.80;;;;;;5020428;28;20492;-73
2023/08/16 13:05:21;;;;;;;2.30;0.20;;;;;;;;;;5014495;28;20103;-74
2023/08/16 13:07:48;;;;;;;2.63;0.30;;;;;;;;;;5003259;28;20052;-75
2023/08/16 13:10:13;;;;;;;1.58;0.13;;;24.10;80.60;;;;;;4996574;28;20119;-72
2023/08/16 13:12:40;;;;;;;2.78;0.20;;;;;;;;;;5017845;28;20048;-74
2023/08/16 13:15:06;;;;;;;2.38;0.20;;;;;;;;;;5014813;28;20104;-74
2023/08/16 13:17:32;;;;;;;1.30;0.10;;;23.70;80.40;;;;;;5022606;28;20049;-72
2023/08/16 13:19:57;;;;;;;2.88;0.20;;;23.80;77.40;;;;;;5018323;28;20114;-74
2023/08/16 13:22:23;;;;;;;0.60;0.20;;;23.60;79.90;;;;;;5008538;28;20405;-72
2023/08/16 13:24:49;;;;;;;2.35;0.22;;;23.70;77.50;;;;;;5001574;28;20126;-73
2023/08/16 13:27:15;;;;;;;3.50;0.40;;;23.60;76.50;;;;;;5006973;28;20132;-71
2023/08/16 13:29:40;;;;;;;1.95;0.20;;;23.60;79.80;;;;;;5018283;28;20045;-82